Time;durP1;ratioP1;P1;durP2;ratioP2;P2;SDS_P1;SDS_P2;PMS_P1;PMS_P2;Temp;Humidity;BMP_temperature;BMP_pressure;BME280_temperature;BME280_humidity;BME280_pressure;Samples;Min_cycle;Max_cycle;Signal;HPM_P1;HPM_P2
2022/03/15 00:01:04;;;;;;;7.80;4.90;;;9.20;70.70;;;;;;5012382;28;20581;-90
2022/03/15 00:03:30;;;;;;;7.87;5.47;;;9.30;70.60;;;;;;5009580;28;20186;-90
2022/03/15 00:05:56;;;;;;;9.00;5.13;;;9.30;70.50;;;;;;5006801;28;20213;-90
2022/03/15 00:08:22;;;;;;;8.00;5.10;;;9.30;70.20;;;;;;5024543;28;20245;-89
2022/03/15 00:10:57;;;;;;;9.87;5.47;;;9.30;70.10;;;;;;5014171;28;20201;-89
2022/03/15 00:13:26;;;;;;;5.00;4.50;;;9.20;70.10;;;;;;5021984;28;20189;-90
2022/03/15 00:15:52;;;;;;;8.87;4.90;;;9.30;70.20;;;;;;5020829;28;20253;-90
2022/03/15 00:18:21;;;;;;;5.70;4.60;;;9.30;70.00;;;;;;5005710;28;20256;-90
2022/03/15 00:20:47;;;;;;;5.43;4.50;;;9.40;69.60;;;;;;5004427;28;20186;-89
2022/03/15 00:23:13;;;;;;;6.03;4.47;;;9.40;68.80;;;;;;5013839;28;20185;-90
2022/03/15 00:25:38;;;;;;;6.13;4.97;;;9.40;69.30;;;;;;5006313;28;20257;-90
2022/03/15 00:28:04;;;;;;;5.47;4.73;;;9.30;69.70;;;;;;5024705;28;20190;-90
2022/03/15 00:30:30;;;;;;;5.67;4.53;;;9.20;69.90;;;;;;5032454;28;20212;-90
2022/03/15 00:32:55;;;;;;;8.40;5.40;;;9.20;70.10;;;;;;5025956;28;20209;-89
2022/03/15 00:35:25;;;;;;;6.57;5.20;;;9.00;70.90;;;;;;5015413;28;20289;-90
2022/03/15 00:37:54;;;;;;;4.53;4.13;;;8.90;71.30;;;;;;5004968;28;20752;-90
2022/03/15 00:40:22;;;;;;;6.50;4.63;;;8.90;71.60;;;;;;5028192;28;20213;-90
2022/03/15 00:42:50;;;;;;;5.57;4.40;;;8.90;71.50;;;;;;5035635;28;20292;-90
2022/03/15 00:45:17;;;;;;;6.70;4.70;;;8.90;71.40;;;;;;5035673;28;20184;-90
2022/03/15 00:47:43;;;;;;;8.77;4.63;;;8.90;71.30;;;;;;5014264;28;20189;-90
2022/03/15 00:50:09;;;;;;;8.40;4.77;;;8.80;71.60;;;;;;5024179;28;20293;-90
2022/03/15 00:52:35;;;;;;;5.53;4.27;;;8.80;71.70;;;;;;5020336;28;20214;-90
2022/03/15 00:55:01;;;;;;;9.57;4.67;;;8.80;71.90;;;;;;5017414;28;20232;-90
2022/03/15 00:57:27;;;;;;;8.40;4.57;;;8.70;72.30;;;;;;5005301;28;20274;-90
2022/03/15 00:59:54;;;;;;;9.97;4.47;;;8.60;73.20;;;;;;5040975;28;20209;-89
2022/03/15 01:02:20;;;;;;;5.13;3.87;;;8.50;73.30;;;;;;5012240;28;20289;-90
2022/03/15 01:04:46;;;;;;;7.27;4.27;;;8.50;73.70;;;;;;5021393;28;20260;-90
2022/03/15 01:07:12;;;;;;;10.83;5.47;;;8.50;73.70;;;;;;5024075;28;20189;-90
2022/03/15 01:09:39;;;;;;;6.40;4.00;;;8.50;73.60;;;;;;5042921;28;20214;-90
2022/03/15 01:12:05;;;;;;;6.73;4.50;;;8.60;73.50;;;;;;5010402;28;20202;-89
2022/03/15 01:14:31;;;;;;;5.57;4.13;;;8.60;72.90;;;;;;5019631;28;20193;-90
2022/03/15 01:16:57;;;;;;;5.23;4.40;;;8.60;72.60;;;;;;5009894;28;20186;-90
2022/03/15 01:19:23;;;;;;;6.40;4.10;;;8.70;72.30;;;;;;5041346;28;20264;-90
2022/03/15 01:21:51;;;;;;;5.67;4.00;;;8.80;71.90;;;;;;5057781;28;20229;-90
2022/03/15 01:24:17;;;;;;;6.57;4.37;;;9.00;71.50;;;;;;5025906;28;20193;-90
2022/03/15 01:26:42;;;;;;;5.53;4.33;;;9.10;70.60;;;;;;5028366;28;20193;-90
2022/03/15 01:29:08;;;;;;;5.67;4.10;;;9.10;70.60;;;;;;5029388;28;20197;-90
2022/03/15 01:31:34;;;;;;;4.27;3.67;;;9.00;70.60;;;;;;5024755;28;20218;-90
2022/03/15 01:34:00;;;;;;;4.87;4.00;;;9.10;70.80;;;;;;5009946;28;20198;-91
2022/03/15 01:36:26;;;;;;;6.53;4.20;;;9.10;70.40;;;;;;5023942;28;20672;-90
2022/03/15 01:38:52;;;;;;;5.83;4.23;;;9.10;70.60;;;;;;5020296;28;20572;-90
2022/03/15 01:41:19;;;;;;;6.77;4.90;;;8.90;71.00;;;;;;5054504;28;20224;-90
2022/03/15 01:43:46;;;;;;;4.33;3.93;;;8.80;71.50;;;;;;5012287;28;20220;-90
2022/03/15 01:46:12;;;;;;;7.33;4.37;;;8.70;72.30;;;;;;5012181;28;20261;-90
2022/03/15 01:48:39;;;;;;;7.03;4.50;;;8.60;72.70;;;;;;5055449;28;20281;-90
2022/03/15 01:51:06;;;;;;;5.93;4.20;;;8.60;73.00;;;;;;5027994;28;20205;-90
2022/03/15 01:53:31;;;;;;;6.30;4.10;;;8.60;73.00;;;;;;5027507;28;20248;-90
2022/03/15 01:55:59;;;;;;;5.57;4.10;;;8.60;73.20;;;;;;5023065;28;20202;-89
2022/03/15 01:58:25;;;;;;;4.80;4.27;;;8.60;73.20;;;;;;5012334;28;20249;-89
2022/03/15 02:00:51;;;;;;;5.97;4.10;;;8.60;72.70;;;;;;5007884;28;20181;-91
2022/03/15 02:03:17;;;;;;;5.77;4.73;;;8.70;72.20;;;;;;5049168;28;20415;-89
2022/03/15 02:05:43;;;;;;;4.70;3.77;;;8.60;72.90;;;;;;5041183;28;20186;-90
2022/03/15 02:08:17;;;;;;;5.67;4.47;;;8.60;73.10;;;;;;5016500;28;20174;-89
2022/03/15 02:10:43;;;;;;;8.33;4.97;;;8.60;73.00;;;;;;5027244;28;20388;-90
2022/03/15 02:13:10;;;;;;;5.63;4.10;;;8.60;72.90;;;;;;5018277;28;20260;-89
2022/03/15 02:15:37;;;;;;;5.03;4.30;;;8.50;73.40;;;;;;5040145;28;20205;-89
2022/03/15 02:18:04;;;;;;;6.07;4.93;;;8.50;73.80;;;;;;5007451;28;20883;-89
2022/03/15 02:20:30;;;;;;;7.33;4.67;;;8.60;73.70;;;;;;5007469;28;20170;-89
2022/03/15 02:22:57;;;;;;;5.67;4.50;;;8.60;73.60;;;;;;5047048;28;20219;-89
2022/03/15 02:25:23;;;;;;;7.07;4.87;;;8.60;73.80;;;;;;5058476;28;20231;-88
2022/03/15 02:27:49;;;;;;;6.20;4.33;;;8.70;73.40;;;;;;5048317;28;20202;-88
2022/03/15 02:30:15;;;;;;;6.00;4.33;;;8.70;73.10;;;;;;5040599;28;20270;-88
2022/03/15 02:32:42;;;;;;;5.23;4.60;;;8.80;72.30;;;;;;5026013;28;20209;-88
2022/03/15 02:35:09;;;;;;;5.83;4.60;;;8.90;72.10;;;;;;5015153;28;20178;-88
2022/03/15 02:37:35;;;;;;;6.40;4.53;;;8.90;72.80;;;;;;5010328;28;20194;-88
2022/03/15 02:40:00;;;;;;;4.83;3.93;;;8.80;72.50;;;;;;5022783;28;20205;-88
2022/03/15 02:42:26;;;;;;;5.97;4.80;;;8.80;72.50;;;;;;5007151;28;20202;-88
2022/03/15 02:44:52;;;;;;;6.83;4.73;;;8.90;71.90;;;;;;5016709;28;20181;-88
2022/03/15 02:47:18;;;;;;;6.73;4.80;;;8.90;71.90;;;;;;5013187;28;20187;-89
2022/03/15 02:49:44;;;;;;;4.73;4.30;;;8.90;72.10;;;;;;5059444;28;20201;-88
2022/03/15 02:52:10;;;;;;;6.40;4.40;;;8.90;72.10;;;;;;5027879;28;20212;-89
2022/03/15 02:54:41;;;;;;;6.17;5.27;;;9.00;71.50;;;;;;5051206;28;20225;-88
2022/03/15 02:57:10;;;;;;;7.47;4.87;;;9.00;71.40;;;;;;5014426;28;20187;-89
2022/03/15 02:59:39;;;;;;;6.23;5.23;;;8.90;71.50;;;;;;5008992;28;20311;-89
2022/03/15 03:02:08;;;;;;;7.77;4.63;;;8.90;72.20;;;;;;5025696;28;20208;-89
2022/03/15 03:04:34;;;;;;;5.13;4.67;;;8.90;72.10;;;;;;5020713;28;20209;-89
2022/03/15 03:07:01;;;;;;;5.77;4.83;;;8.90;72.10;;;;;;5018496;28;20194;-89
2022/03/15 03:09:27;;;;;;;5.50;4.47;;;8.90;71.70;;;;;;5015663;28;20209;-89
2022/03/15 03:11:53;;;;;;;6.20;4.40;;;9.00;71.60;;;;;;5026017;28;20206;-88
2022/03/15 03:14:22;;;;;;;6.57;4.83;;;8.90;71.70;;;;;;5008595;28;20250;-88
2022/03/15 03:16:48;;;;;;;4.87;4.47;;;8.90;72.10;;;;;;5038746;28;20258;-89
2022/03/15 03:19:13;;;;;;;9.00;4.90;;;8.90;71.60;;;;;;5009602;28;20218;-89
2022/03/15 03:21:40;;;;;;;4.83;4.37;;;9.00;71.20;;;;;;5060411;28;20215;-89
2022/03/15 03:24:06;;;;;;;7.70;4.80;;;9.00;71.40;;;;;;5029012;28;20182;-89
2022/03/15 03:26:38;;;;;;;6.07;4.53;;;9.00;71.40;;;;;;5014119;28;20732;-89
2022/03/15 03:29:10;;;;;;;5.73;4.43;;;9.00;71.40;;;;;;5013177;28;20181;-88
2022/03/15 03:31:41;;;;;;;6.07;5.20;;;9.10;71.20;;;;;;5059862;28;20263;-89
2022/03/15 03:34:08;;;;;;;8.23;4.40;;;9.10;71.10;;;;;;5023958;28;20245;-89
2022/03/15 03:36:34;;;;;;;6.10;4.60;;;9.20;71.10;;;;;;5023921;28;20209;-89
2022/03/15 03:39:00;;;;;;;6.53;4.87;;;9.20;71.10;;;;;;5018589;28;20226;-89
2022/03/15 03:41:26;;;;;;;7.47;4.30;;;9.20;71.10;;;;;;5025168;28;20237;-89
2022/03/15 03:43:51;;;;;;;6.27;4.80;;;9.20;71.40;;;;;;5024989;28;20197;-89
2022/03/15 03:46:17;;;;;;;5.03;4.53;;;9.20;70.80;;;;;;5010854;28;20202;-89
2022/03/15 03:48:44;;;;;;;5.10;4.47;;;9.20;70.30;;;;;;5013358;28;20178;-89
2022/03/15 03:51:11;;;;;;;7.70;4.80;;;9.20;70.90;;;;;;5010029;28;20220;-90
2022/03/15 03:53:37;;;;;;;6.30;5.00;;;9.00;71.40;;;;;;5021256;28;20213;-89
2022/03/15 03:56:03;;;;;;;4.97;4.50;;;9.20;71.40;;;;;;5009648;28;20677;-89
2022/03/15 03:58:29;;;;;;;5.80;4.23;;;9.30;71.00;;;;;;5016614;28;20210;-89
2022/03/15 04:00:54;;;;;;;7.17;4.00;;;9.30;70.50;;;;;;5022059;28;20242;-89
2022/03/15 04:03:21;;;;;;;5.17;4.67;;;9.20;71.20;;;;;;5005416;28;20229;-89
2022/03/15 04:05:48;;;;;;;6.30;4.43;;;9.20;70.60;;;;;;5008976;28;20192;-89
2022/03/15 04:08:14;;;;;;;7.20;4.70;;;9.10;71.20;;;;;;5024864;28;20248;-89
2022/03/15 04:10:40;;;;;;;6.07;4.40;;;9.10;71.50;;;;;;5023544;28;20194;-89
2022/03/15 04:13:07;;;;;;;7.23;4.37;;;9.30;71.10;;;;;;5021368;28;20214;-89
2022/03/15 04:15:34;;;;;;;5.83;4.40;;;9.30;70.80;;;;;;5020763;28;20201;-89
2022/03/15 04:18:00;;;;;;;4.13;3.60;;;9.30;70.90;;;;;;5005234;28;20202;-89
2022/03/15 04:20:26;;;;;;;5.70;4.63;;;9.30;70.60;;;;;;5033352;28;20189;-90
2022/03/15 04:22:52;;;;;;;7.47;4.43;;;9.40;70.70;;;;;;5014146;28;20207;-88
2022/03/15 04:25:19;;;;;;;4.97;4.30;;;9.40;70.50;;;;;;5033816;28;20224;-90
2022/03/15 04:27:45;;;;;;;4.33;3.77;;;9.40;71.20;;;;;;5015912;28;20189;-89
2022/03/15 04:30:12;;;;;;;5.77;4.43;;;9.30;71.80;;;;;;5033887;28;20201;-89
2022/03/15 04:32:37;;;;;;;5.07;4.67;;;9.20;71.80;;;;;;5006666;28;20202;-89
2022/03/15 04:35:04;;;;;;;4.70;4.30;;;9.20;72.30;;;;;;5004367;28;20263;-88
2022/03/15 04:37:30;;;;;;;6.73;4.00;;;9.20;72.10;;;;;;5014554;28;20716;-89
2022/03/15 04:39:57;;;;;;;7.70;4.83;;;9.10;71.90;;;;;;5016515;28;20193;-89
2022/03/15 04:42:23;;;;;;;4.30;3.80;;;9.10;72.50;;;;;;5015927;28;20205;-89
2022/03/15 04:44:49;;;;;;;4.07;3.70;;;9.00;73.50;;;;;;5008259;28;20186;-89
2022/03/15 04:47:15;;;;;;;4.80;4.40;;;9.00;73.60;;;;;;5011763;28;20189;-89
2022/03/15 04:49:41;;;;;;;7.30;3.90;;;8.90;73.30;;;;;;5016986;28;20221;-90
2022/03/15 04:52:07;;;;;;;6.87;4.53;;;9.00;72.60;;;;;;5024465;28;20267;-89
2022/03/15 04:54:33;;;;;;;5.33;4.23;;;9.10;72.00;;;;;;5025609;28;20192;-89
2022/03/15 04:56:58;;;;;;;4.17;3.87;;;9.10;71.90;;;;;;5024669;28;20205;-89
2022/03/15 04:59:24;;;;;;;7.80;4.43;;;9.00;72.20;;;;;;5042303;28;20713;-90
2022/03/15 05:01:50;;;;;;;8.60;5.63;;;8.80;73.30;;;;;;5050626;28;20699;-89
2022/03/15 05:04:15;;;;;;;4.67;4.27;;;8.70;73.20;;;;;;5006309;28;20197;-89
2022/03/15 05:06:41;;;;;;;7.43;4.80;;;8.70;72.90;;;;;;5013678;28;20208;-89
2022/03/15 05:09:07;;;;;;;6.00;4.80;;;8.80;72.90;;;;;;5006370;28;20265;-89
2022/03/15 05:11:34;;;;;;;6.90;4.47;;;8.80;73.30;;;;;;5004799;28;20305;-89
2022/03/15 05:14:00;;;;;;;5.33;4.30;;;8.90;72.90;;;;;;5012871;28;20474;-89
2022/03/15 05:16:26;;;;;;;6.17;4.07;;;8.70;73.80;;;;;;5024429;28;20198;-89
2022/03/15 05:18:54;;;;;;;5.10;4.10;;;8.70;73.90;;;;;;5016617;28;20202;-90
2022/03/15 05:21:24;;;;;;;6.87;4.43;;;8.70;73.50;;;;;;5040072;28;20209;-90
2022/03/15 05:23:51;;;;;;;5.87;3.97;;;8.70;73.10;;;;;;5011132;28;20193;-90
2022/03/15 05:26:17;;;;;;;5.97;4.33;;;8.80;73.30;;;;;;5020965;28;20289;-91
2022/03/15 05:28:45;;;;;;;9.17;4.40;;;8.80;73.10;;;;;;5024665;28;20568;-89
2022/03/15 05:31:11;;;;;;;4.87;4.17;;;8.80;73.00;;;;;;5023832;28;20211;-89
2022/03/15 05:33:37;;;;;;;4.47;4.07;;;8.70;73.60;;;;;;5022409;28;20600;-90
2022/03/15 05:36:04;;;;;;;6.70;4.40;;;8.70;73.60;;;;;;5023362;28;20316;-89
2022/03/15 05:38:30;;;;;;;6.57;4.30;;;8.60;73.90;;;;;;5020456;28;20320;-89
2022/03/15 05:40:56;;;;;;;4.90;4.13;;;8.50;74.70;;;;;;5047232;28;20201;-89
2022/03/15 05:43:22;;;;;;;7.23;4.30;;;8.60;74.60;;;;;;5034771;28;20182;-90
2022/03/15 05:45:48;;;;;;;5.03;4.00;;;8.60;74.80;;;;;;5012064;28;20192;-89
2022/03/15 05:48:14;;;;;;;6.67;4.50;;;8.60;75.20;;;;;;5022681;28;20236;-90
2022/03/15 05:50:40;;;;;;;6.23;4.60;;;8.60;75.00;;;;;;5006360;28;20179;-89
2022/03/15 05:53:07;;;;;;;4.53;4.13;;;8.40;76.10;;;;;;5038748;28;20198;-90
2022/03/15 05:55:34;;;;;;;6.83;4.20;;;8.40;76.20;;;;;;5019927;28;20222;-86
2022/03/15 05:58:01;;;;;;;7.57;4.40;;;8.50;75.70;;;;;;5038483;28;20224;-89
2022/03/15 06:00:28;;;;;;;6.00;4.47;;;8.40;76.90;;;;;;5026809;28;20178;-89
2022/03/15 06:02:55;;;;;;;7.70;5.07;;;8.30;78.20;;;;;;5026147;28;20232;-90
2022/03/15 06:05:21;;;;;;;12.43;4.70;;;8.20;78.50;;;;;;5033136;28;20192;-89
2022/03/15 06:07:49;;;;;;;5.10;4.60;;;8.20;78.90;;;;;;5016558;28;20198;-89
2022/03/15 06:10:17;;;;;;;7.27;4.70;;;8.30;78.30;;;;;;5031270;28;20197;-89
2022/03/15 06:12:43;;;;;;;6.10;4.90;;;8.40;78.20;;;;;;5025305;28;20252;-89
2022/03/15 06:15:10;;;;;;;4.73;4.30;;;8.50;76.90;;;;;;5024402;28;20217;-90
2022/03/15 06:17:49;;;;;;;6.60;5.17;;;8.60;76.50;;;;;;5026341;28;20220;-89
2022/03/15 06:20:16;;;;;;;5.67;4.37;;;8.40;77.90;;;;;;5025676;28;20187;-89
2022/03/15 06:22:43;;;;;;;5.20;4.70;;;8.50;77.30;;;;;;5025064;28;20220;-89
2022/03/15 06:25:09;;;;;;;6.77;5.43;;;8.60;76.60;;;;;;5026586;28;20200;-89
2022/03/15 06:27:36;;;;;;;5.93;5.43;;;8.70;75.80;;;;;;5027170;28;20273;-89
2022/03/15 06:30:04;;;;;;;8.83;5.93;;;8.70;75.80;;;;;;5048285;28;20288;-89
2022/03/15 06:32:31;;;;;;;7.07;5.40;;;8.40;77.70;;;;;;5032346;28;20209;-89
2022/03/15 06:34:58;;;;;;;6.87;5.43;;;8.20;79.40;;;;;;5032093;28;20745;-90
2022/03/15 06:37:24;;;;;;;7.70;5.70;;;8.30;78.20;;;;;;5028205;28;20224;-89
2022/03/15 06:39:50;;;;;;;7.67;5.63;;;8.10;79.00;;;;;;5030974;28;20252;-89
2022/03/15 06:42:17;;;;;;;8.20;5.60;;;8.00;80.10;;;;;;5026928;28;20213;-89
2022/03/15 06:44:43;;;;;;;6.93;6.07;;;8.10;79.90;;;;;;5010683;28;20219;-90
2022/03/15 06:47:10;;;;;;;10.00;6.00;;;7.90;80.10;;;;;;5032746;28;20253;-90
2022/03/15 06:49:35;;;;;;;8.03;6.30;;;8.00;80.10;;;;;;5034649;28;20192;-89
2022/03/15 06:52:01;;;;;;;9.43;5.67;;;7.90;81.10;;;;;;5017032;28;20206;-91
2022/03/15 06:54:27;;;;;;;7.93;6.20;;;8.00;81.50;;;;;;5043542;28;20181;-91
2022/03/15 06:56:53;;;;;;;8.50;5.37;;;8.10;80.80;;;;;;5029188;28;20209;-90
2022/03/15 06:59:20;;;;;;;6.63;5.87;;;8.20;79.50;;;;;;5027564;28;20214;-89
2022/03/15 07:01:46;;;;;;;6.33;5.80;;;8.20;80.20;;;;;;5023765;28;20209;-89
2022/03/15 07:04:12;;;;;;;7.83;5.93;;;8.00;81.00;;;;;;5025591;28;20189;-89
2022/03/15 07:06:38;;;;;;;7.13;5.60;;;8.20;80.50;;;;;;5027142;28;20244;-89
2022/03/15 07:09:04;;;;;;;6.90;6.30;;;8.30;79.90;;;;;;5011774;28;20293;-90
2022/03/15 07:11:29;;;;;;;6.90;6.20;;;8.30;79.60;;;;;;5027179;28;20279;-89
2022/03/15 07:13:55;;;;;;;7.57;5.33;;;8.40;78.30;;;;;;5027607;28;20194;-89
2022/03/15 07:16:21;;;;;;;6.27;5.17;;;8.60;76.40;;;;;;5028207;28;20460;-91
2022/03/15 07:18:47;;;;;;;6.27;5.67;;;8.70;76.10;;;;;;5036469;28;20226;-91
2022/03/15 07:21:13;;;;;;;6.53;5.80;;;8.70;76.00;;;;;;5041158;28;20217;-90
2022/03/15 07:23:38;;;;;;;6.77;5.63;;;8.70;75.80;;;;;;5028087;28;20186;-90
2022/03/15 07:26:04;;;;;;;7.63;5.87;;;8.70;75.10;;;;;;5029841;28;20257;-89
2022/03/15 07:28:30;;;;;;;9.07;5.87;;;8.70;74.80;;;;;;5024231;28;20271;-91
2022/03/15 07:30:56;;;;;;;6.73;6.03;;;8.80;74.50;;;;;;5028120;28;20193;-89
2022/03/15 07:33:22;;;;;;;8.17;6.77;;;8.90;74.70;;;;;;5027329;28;20193;-90
2022/03/15 07:35:47;;;;;;;6.47;5.77;;;8.70;75.90;;;;;;5024412;28;20237;-89
2022/03/15 07:38:17;;;;;;;6.83;6.13;;;8.60;77.20;;;;;;5030916;28;20251;-90
2022/03/15 07:40:44;;;;;;;8.17;6.30;;;8.70;77.80;;;;;;5024877;28;20190;-89
2022/03/15 07:43:10;;;;;;;9.23;6.27;;;8.60;79.20;;;;;;5024261;28;20192;-90
2022/03/15 07:45:36;;;;;;;7.60;5.93;;;8.60;78.90;;;;;;5011156;28;20189;-89
2022/03/15 07:48:02;;;;;;;8.07;6.40;;;8.60;78.60;;;;;;5027438;28;20757;-89
2022/03/15 07:50:28;;;;;;;10.50;6.83;;;8.60;78.60;;;;;;5006356;28;20194;-89
2022/03/15 07:52:53;;;;;;;10.77;7.10;;;8.50;79.00;;;;;;5024626;28;20221;-89
2022/03/15 07:55:22;;;;;;;7.90;6.63;;;8.70;78.00;;;;;;5023164;28;20194;-89
2022/03/15 07:57:48;;;;;;;8.37;6.90;;;8.70;79.00;;;;;;5027828;28;20193;-90
2022/03/15 08:00:15;;;;;;;7.53;6.63;;;8.70;79.80;;;;;;5026971;28;20193;-89
2022/03/15 08:02:41;;;;;;;7.23;6.23;;;8.60;80.00;;;;;;5023722;28;20217;-90
2022/03/15 08:05:08;;;;;;;11.20;7.20;;;8.30;81.80;;;;;;5023684;28;20217;-89
2022/03/15 08:07:36;;;;;;;7.43;6.70;;;8.20;83.80;;;;;;5032136;28;20199;-89
2022/03/15 08:10:07;;;;;;;6.90;6.27;;;8.20;84.00;;;;;;5028091;28;20193;-90
2022/03/15 08:12:33;;;;;;;10.70;5.73;;;8.30;85.30;;;;;;5024648;28;20217;-90
2022/03/15 08:14:59;;;;;;;6.00;5.43;;;8.40;84.40;;;;;;5026616;28;20192;-88
2022/03/15 08:17:25;;;;;;;8.33;6.50;;;8.40;85.20;;;;;;5032666;28;20260;-90
2022/03/15 08:19:52;;;;;;;7.70;6.13;;;8.50;85.20;;;;;;5026173;28;20224;-89
2022/03/15 08:22:18;;;;;;;6.23;5.60;;;8.50;85.90;;;;;;5025863;28;20209;-90
2022/03/15 08:24:43;;;;;;;6.83;5.80;;;8.60;85.70;;;;;;5027863;28;20198;-90
2022/03/15 08:27:09;;;;;;;7.33;5.93;;;8.70;83.50;;;;;;5025363;28;20196;-90
2022/03/15 08:29:35;;;;;;;8.23;6.10;;;8.80;82.40;;;;;;5033069;28;20192;-89
2022/03/15 08:32:01;;;;;;;6.97;6.37;;;8.80;81.70;;;;;;5030914;28;20247;-90
2022/03/15 08:34:28;;;;;;;8.10;7.10;;;9.00;82.40;;;;;;5022518;28;20245;-89
2022/03/15 08:36:53;;;;;;;8.17;6.17;;;8.90;83.00;;;;;;5026944;28;20200;-89
2022/03/15 08:39:23;;;;;;;7.97;6.50;;;8.90;82.90;;;;;;5031438;28;20244;-90
2022/03/15 08:41:53;;;;;;;9.40;6.77;;;8.90;82.80;;;;;;5027983;28;20274;-90
2022/03/15 08:44:19;;;;;;;9.87;7.27;;;8.80;86.40;;;;;;5026363;28;20186;-89
2022/03/15 08:46:47;;;;;;;11.13;6.93;;;8.80;85.60;;;;;;5028864;28;20189;-90
2022/03/15 08:49:14;;;;;;;8.20;6.10;;;8.70;86.10;;;;;;5034819;28;20261;-88
2022/03/15 08:51:40;;;;;;;11.40;8.70;;;8.80;87.20;;;;;;5025898;28;20209;-88
2022/03/15 08:54:06;;;;;;;8.93;7.80;;;8.80;88.70;;;;;;5024702;28;20224;-90
2022/03/15 08:56:32;;;;;;;11.67;7.10;;;8.90;88.70;;;;;;5024569;28;20610;-90
2022/03/15 08:58:58;;;;;;;9.80;7.67;;;9.00;87.10;;;;;;5025369;28;20279;-89
2022/03/15 09:01:24;;;;;;;10.87;7.63;;;9.10;88.10;;;;;;5029120;28;20277;-90
2022/03/15 09:03:50;;;;;;;11.80;10.30;;;9.20;87.00;;;;;;5028894;28;20186;-89
2022/03/15 09:06:16;;;;;;;11.03;9.40;;;9.20;87.40;;;;;;5027825;28;20217;-89
2022/03/15 09:08:42;;;;;;;8.30;6.83;;;9.30;88.90;;;;;;5036231;28;20166;-90
2022/03/15 09:11:08;;;;;;;9.43;8.43;;;9.20;88.90;;;;;;5035004;28;20213;-89
2022/03/15 09:13:35;;;;;;;10.57;8.67;;;9.20;89.80;;;;;;5037935;28;20802;-91
2022/03/15 09:16:01;;;;;;;8.47;7.57;;;9.20;91.40;;;;;;5040010;28;20185;-88
2022/03/15 09:18:27;;;;;;;8.80;7.80;;;9.20;91.30;;;;;;5025261;28;20221;-90
2022/03/15 09:20:53;;;;;;;11.27;7.37;;;9.30;90.50;;;;;;5033826;28;20196;-89
2022/03/15 09:23:20;;;;;;;11.30;10.10;;;9.20;90.60;;;;;;5028363;28;20222;-88
2022/03/15 09:25:47;;;;;;;11.83;7.87;;;9.20;91.80;;;;;;5018025;28;20198;-89
2022/03/15 09:28:13;;;;;;;7.67;6.87;;;9.20;92.20;;;;;;5028443;28;20436;-89
2022/03/15 09:30:39;;;;;;;7.23;6.20;;;9.20;95.20;;;;;;5034812;28;20190;-89
2022/03/15 09:33:05;;;;;;;7.90;6.80;;;9.20;93.60;;;;;;5029607;28;20266;-89
2022/03/15 09:35:31;;;;;;;8.53;6.27;;;9.20;93.90;;;;;;5029567;28;20186;-89
2022/03/15 09:37:57;;;;;;;8.17;6.60;;;9.20;92.20;;;;;;5028062;28;20245;-88
2022/03/15 09:40:25;;;;;;;9.00;7.60;;;9.30;93.70;;;;;;5029778;28;20188;-89
2022/03/15 09:42:59;;;;;;;7.23;6.23;;;9.30;95.50;;;;;;5037228;28;20225;-89
2022/03/15 09:45:29;;;;;;;7.50;6.67;;;9.30;95.10;;;;;;5028166;28;20645;-88
2022/03/15 09:47:56;;;;;;;8.60;7.53;;;9.30;96.80;;;;;;5032471;28;20196;-88
2022/03/15 09:50:24;;;;;;;15.63;14.13;;;9.30;98.40;;;;;;5027497;28;20201;-89
2022/03/15 09:52:53;;;;;;;19.27;14.20;;;9.20;99.10;;;;;;5027191;28;20217;-89
2022/03/15 09:55:19;;;;;;;13.17;11.00;;;9.20;99.90;;;;;;5027381;28;20884;-89
2022/03/15 09:57:45;;;;;;;11.57;8.93;;;9.10;99.90;;;;;;5027385;28;20196;-89
2022/03/15 10:00:13;;;;;;;15.70;10.97;;;9.10;99.90;;;;;;5028247;28;20186;-88
2022/03/15 10:02:43;;;;;;;22.10;16.93;;;9.10;99.90;;;;;;5026565;28;20297;-89
2022/03/15 10:05:10;;;;;;;21.90;15.73;;;9.10;99.90;;;;;;5026350;28;20212;-88
2022/03/15 10:07:37;;;;;;;66.63;50.93;;;9.00;99.90;;;;;;5030242;28;20196;-88
2022/03/15 10:10:13;;;;;;;14.20;10.80;;;8.90;99.90;;;;;;5026888;28;20219;-89
2022/03/15 10:12:39;;;;;;;9.60;8.60;;;8.90;99.90;;;;;;5028828;28;20223;-89
2022/03/15 10:15:13;;;;;;;11.57;9.53;;;8.90;99.90;;;;;;5010472;28;20182;-88
2022/03/15 10:17:49;;;;;;;12.53;8.30;;;8.90;99.90;;;;;;5058785;28;20190;-89
2022/03/15 10:20:18;;;;;;;8.93;7.50;;;8.90;99.90;;;;;;5056227;28;20260;-88
2022/03/15 10:23:10;;;;;;;8.07;7.20;;;8.90;99.90;;;;;;5031352;28;20210;-89
2022/03/15 10:25:40;;;;;;;8.30;6.70;;;9.00;99.90;;;;;;5027231;28;20198;-88
2022/03/15 10:28:08;;;;;;;8.27;7.47;;;9.10;99.90;;;;;;5026392;28;20213;-88
2022/03/15 10:30:35;;;;;;;9.53;7.93;;;9.20;99.90;;;;;;5031581;28;20197;-88
2022/03/15 10:33:01;;;;;;;10.63;9.63;;;9.20;99.90;;;;;;5028225;28;20206;-88
2022/03/15 10:35:35;;;;;;;11.33;10.00;;;9.20;99.90;;;;;;5029896;28;20189;-88
2022/03/15 10:38:04;;;;;;;11.13;8.50;;;9.10;99.90;;;;;;5028073;28;20208;-87
2022/03/15 10:40:43;;;;;;;12.50;10.40;;;9.10;99.90;;;;;;5034507;28;20207;-88
2022/03/15 10:43:25;;;;;;;10.60;8.70;;;9.30;99.90;;;;;;5025829;28;20254;-88
2022/03/15 10:46:01;;;;;;;10.03;9.03;;;9.30;99.90;;;;;;5028740;28;20177;-88
2022/03/15 10:48:31;;;;;;;11.33;8.33;;;9.30;99.90;;;;;;5028099;28;20209;-89
2022/03/15 10:51:17;;;;;;;16.37;9.70;;;9.20;99.90;;;;;;5026579;28;20178;-89
2022/03/15 10:53:45;;;;;;;11.73;10.73;;;9.40;99.90;;;;;;5022521;28;20192;-89
2022/03/15 10:56:15;;;;;;;14.80;8.97;;;9.40;99.90;;;;;;5037105;28;20182;-88
2022/03/15 10:58:45;;;;;;;9.07;8.17;;;9.30;99.90;;;;;;5026149;28;20378;-90
2022/03/15 11:01:11;;;;;;;9.63;7.17;;;9.40;99.90;;;;;;5026556;28;20269;-88
2022/03/15 11:03:37;;;;;;;11.60;8.33;;;9.50;99.90;;;;;;5026112;28;20276;-88
2022/03/15 11:06:08;;;;;;;14.43;9.17;;;9.50;99.90;;;;;;5011073;28;20224;-88
2022/03/15 11:08:35;;;;;;;8.70;7.13;;;9.50;99.90;;;;;;5026770;28;20189;-88
2022/03/15 11:11:05;;;;;;;11.33;8.50;;;9.60;99.90;;;;;;5033785;28;20190;-88
2022/03/15 11:13:36;;;;;;;10.83;7.93;;;9.70;99.90;;;;;;5024885;28;20189;-89
2022/03/15 11:16:04;;;;;;;15.80;12.83;;;9.80;99.90;;;;;;5029001;28;20211;-88
2022/03/15 11:18:34;;;;;;;11.90;8.77;;;9.60;99.90;;;;;;5024524;28;20213;-88
2022/03/15 11:21:02;;;;;;;15.67;9.20;;;9.70;99.90;;;;;;5025764;28;20213;-89
2022/03/15 11:23:32;;;;;;;14.77;11.43;;;9.70;99.70;;;;;;5028905;28;20198;-88
2022/03/15 11:26:04;;;;;;;8.90;7.87;;;9.60;99.90;;;;;;5026685;28;20201;-88
2022/03/15 11:28:32;;;;;;;12.57;9.23;;;9.70;99.90;;;;;;5040048;28;20176;-87
2022/03/15 11:30:59;;;;;;;13.70;9.20;;;9.80;99.10;;;;;;5039363;28;20727;-89
2022/03/15 11:33:27;;;;;;;13.83;8.73;;;9.80;99.70;;;;;;5040326;28;20204;-86
2022/03/15 11:35:53;;;;;;;9.47;7.70;;;9.90;99.60;;;;;;5042316;28;20213;-89
2022/03/15 11:38:20;;;;;;;8.67;7.27;;;9.90;98.90;;;;;;5028064;28;20244;-89
2022/03/15 11:40:47;;;;;;;10.57;9.57;;;9.90;99.60;;;;;;5029001;28;20182;-89
2022/03/15 11:43:34;;;;;;;11.13;10.10;;;10.00;99.90;;;;;;5026187;28;20197;-89
2022/03/15 11:46:08;;;;;;;10.53;8.07;;;10.00;99.90;;;;;;5024022;28;20189;-90
2022/03/15 11:48:51;;;;;;;9.57;7.00;;;10.10;99.00;;;;;;5026693;28;20193;-89
2022/03/15 11:51:20;;;;;;;7.67;6.97;;;10.10;97.90;;;;;;5025978;28;20225;-89
2022/03/15 11:54:08;;;;;;;14.33;8.33;;;10.10;98.30;;;;;;5024415;28;20276;-90
2022/03/15 11:56:48;;;;;;;8.50;7.70;;;10.10;98.90;;;;;;5025327;28;20196;-89
2022/03/15 11:59:15;;;;;;;8.07;7.27;;;10.10;98.60;;;;;;5024737;28;20215;-89
2022/03/15 12:01:46;;;;;;;8.90;6.67;;;10.20;97.10;;;;;;5025709;28;20209;-89
2022/03/15 12:04:12;;;;;;;11.27;7.70;;;10.10;97.40;;;;;;5027169;28;20188;-89
2022/03/15 12:06:46;;;;;;;9.57;8.00;;;10.20;96.80;;;;;;5029518;28;20200;-89
2022/03/15 12:09:13;;;;;;;8.43;7.53;;;10.30;98.60;;;;;;5025898;28;20198;-89
2022/03/15 12:11:40;;;;;;;12.77;8.50;;;10.20;97.20;;;;;;5027297;28;20214;-88
2022/03/15 12:14:07;;;;;;;10.63;7.30;;;10.30;97.20;;;;;;5030789;28;20206;-88
2022/03/15 12:16:54;;;;;;;10.77;6.93;;;10.20;97.90;;;;;;5025952;28;20245;-89
2022/03/15 12:19:37;;;;;;;10.20;7.33;;;10.30;97.00;;;;;;5057325;28;20210;-89
2022/03/15 12:22:09;;;;;;;9.50;7.57;;;10.30;95.00;;;;;;5028740;28;20219;-89
2022/03/15 12:24:40;;;;;;;7.80;7.00;;;10.40;95.10;;;;;;5028774;28;20180;-89
2022/03/15 12:27:11;;;;;;;8.97;8.07;;;10.40;94.10;;;;;;5023642;28;20198;-88
2022/03/15 12:29:37;;;;;;;7.47;6.77;;;10.60;96.70;;;;;;5025026;28;20209;-89
2022/03/15 12:32:14;;;;;;;8.90;7.33;;;10.70;94.30;;;;;;5027934;28;20217;-88
2022/03/15 12:34:54;;;;;;;7.93;6.70;;;10.80;93.60;;;;;;5029948;28;20198;-88
2022/03/15 12:37:30;;;;;;;7.60;6.83;;;10.70;94.60;;;;;;5026300;28;20184;-88
2022/03/15 12:39:58;;;;;;;8.63;7.67;;;10.80;93.90;;;;;;5058806;28;20299;-88
2022/03/15 12:42:27;;;;;;;9.93;7.60;;;10.80;93.80;;;;;;5028115;28;20211;-88
2022/03/15 12:45:01;;;;;;;10.43;7.27;;;10.60;93.80;;;;;;5026911;28;20211;-87
2022/03/15 12:47:32;;;;;;;12.10;10.43;;;10.60;94.70;;;;;;5029479;28;20188;-86
2022/03/15 12:50:20;;;;;;;9.43;7.67;;;10.60;94.30;;;;;;5030414;28;20274;-88
2022/03/15 12:52:49;;;;;;;12.50;7.23;;;10.60;96.60;;;;;;5023925;23;20224;-87
2022/03/15 12:55:27;;;;;;;24.33;18.17;;;10.90;92.30;;;;;;5019222;28;20192;-88